sensor_id;sensor_type;location;lat;lon;timestamp;P1;durP1;ratioP1;P2;durP2;ratioP2
34200;SDS011;20469;55.638;37.670;2022-10-15T00:03:39;10.52;;;4.72;;
34200;SDS011;20469;55.638;37.670;2022-10-15T00:06:09;9.65;;;4.38;;
34200;SDS011;20469;55.638;37.670;2022-10-15T00:08:37;6.95;;;3.80;;
34200;SDS011;20469;55.638;37.670;2022-10-15T00:11:07;6.72;;;3.80;;
34200;SDS011;20469;55.638;37.670;2022-10-15T00:13:35;10.05;;;4.40;;
34200;SDS011;20469;55.638;37.670;2022-10-15T00:16:03;11.00;;;4.25;;
34200;SDS011;20469;55.638;37.670;2022-10-15T00:18:33;9.68;;;4.00;;
34200;SDS011;20469;55.638;37.670;2022-10-15T00:21:00;6.53;;;3.92;;
34200;SDS011;20469;55.638;37.670;2022-10-15T00:23:29;6.82;;;3.67;;
34200;SDS011;20469;55.638;37.670;2022-10-15T00:26:02;7.75;;;3.90;;
34200;SDS011;20469;55.638;37.670;2022-10-15T00:28:30;8.68;;;4.00;;
34200;SDS011;20469;55.638;37.670;2022-10-15T00:31:01;7.03;;;3.60;;
34200;SDS011;20469;55.638;37.670;2022-10-15T00:33:29;7.03;;;3.88;;
34200;SDS011;20469;55.638;37.670;2022-10-15T00:35:58;9.77;;;3.65;;
34200;SDS011;20469;55.638;37.670;2022-10-15T00:38:26;9.25;;;3.33;;
34200;SDS011;20469;55.638;37.670;2022-10-15T00:40:54;6.63;;;3.22;;
34200;SDS011;20469;55.638;37.670;2022-10-15T00:46:06;7.38;;;3.05;;
34200;SDS011;20469;55.638;37.670;2022-10-15T00:48:42;5.07;;;2.90;;
34200;SDS011;20469;55.638;37.670;2022-10-15T00:51:10;7.57;;;3.28;;
34200;SDS011;20469;55.638;37.670;2022-10-15T00:53:38;7.03;;;3.40;;
34200;SDS011;20469;55.638;37.670;2022-10-15T00:56:06;6.60;;;2.97;;
34200;SDS011;20469;55.638;37.670;2022-10-15T00:58:34;9.10;;;3.47;;
34200;SDS011;20469;55.638;37.670;2022-10-15T01:01:02;6.13;;;2.88;;
34200;SDS011;20469;55.638;37.670;2022-10-15T01:03:31;8.93;;;3.10;;
34200;SDS011;20469;55.638;37.670;2022-10-15T01:06:06;5.50;;;3.03;;
34200;SDS011;20469;55.638;37.670;2022-10-15T01:08:37;9.90;;;4.28;;
34200;SDS011;20469;55.638;37.670;2022-10-15T01:11:12;5.60;;;3.03;;
34200;SDS011;20469;55.638;37.670;2022-10-15T01:14:11;7.13;;;3.45;;
34200;SDS011;20469;55.638;37.670;2022-10-15T01:16:49;9.40;;;3.58;;
34200;SDS011;20469;55.638;37.670;2022-10-15T01:22:03;7.55;;;3.28;;
34200;SDS011;20469;55.638;37.670;2022-10-15T01:24:39;6.20;;;2.90;;
34200;SDS011;20469;55.638;37.670;2022-10-15T01:27:26;6.63;;;3.50;;
34200;SDS011;20469;55.638;37.670;2022-10-15T01:29:58;7.05;;;3.17;;
34200;SDS011;20469;55.638;37.670;2022-10-15T01:32:47;4.35;;;3.03;;
34200;SDS011;20469;55.638;37.670;2022-10-15T01:35:27;6.22;;;3.10;;
34200;SDS011;20469;55.638;37.670;2022-10-15T01:38:07;5.93;;;3.30;;
34200;SDS011;20469;55.638;37.670;2022-10-15T01:40:53;5.13;;;2.88;;
34200;SDS011;20469;55.638;37.670;2022-10-15T01:43:33;4.55;;;2.97;;
34200;SDS011;20469;55.638;37.670;2022-10-15T01:46:05;5.20;;;3.22;;
34200;SDS011;20469;55.638;37.670;2022-10-15T01:48:39;7.68;;;2.92;;
34200;SDS011;20469;55.638;37.670;2022-10-15T01:51:09;8.73;;;3.40;;
34200;SDS011;20469;55.638;37.670;2022-10-15T01:53:38;7.53;;;2.78;;
34200;SDS011;20469;55.638;37.670;2022-10-15T01:56:08;6.70;;;2.72;;
34200;SDS011;20469;55.638;37.670;2022-10-15T01:58:38;6.15;;;2.92;;
34200;SDS011;20469;55.638;37.670;2022-10-15T02:01:09;5.72;;;2.95;;
34200;SDS011;20469;55.638;37.670;2022-10-15T02:03:45;5.50;;;2.78;;
34200;SDS011;20469;55.638;37.670;2022-10-15T02:06:16;6.20;;;2.92;;
34200;SDS011;20469;55.638;37.670;2022-10-15T02:08:56;5.47;;;2.95;;
34200;SDS011;20469;55.638;37.670;2022-10-15T02:11:41;5.60;;;2.95;;
34200;SDS011;20469;55.638;37.670;2022-10-15T02:14:26;5.60;;;3.10;;
34200;SDS011;20469;55.638;37.670;2022-10-15T02:17:02;6.65;;;3.03;;
34200;SDS011;20469;55.638;37.670;2022-10-15T02:19:42;4.50;;;2.60;;
34200;SDS011;20469;55.638;37.670;2022-10-15T02:22:20;6.72;;;3.10;;
34200;SDS011;20469;55.638;37.670;2022-10-15T02:24:54;7.47;;;2.85;;
34200;SDS011;20469;55.638;37.670;2022-10-15T02:27:25;6.10;;;2.88;;
34200;SDS011;20469;55.638;37.670;2022-10-15T02:29:54;5.75;;;2.70;;
34200;SDS011;20469;55.638;37.670;2022-10-15T02:32:24;4.53;;;2.63;;
34200;SDS011;20469;55.638;37.670;2022-10-15T02:34:53;6.18;;;2.95;;
34200;SDS011;20469;55.638;37.670;2022-10-15T02:37:22;7.18;;;2.47;;
34200;SDS011;20469;55.638;37.670;2022-10-15T02:39:53;8.27;;;2.80;;
34200;SDS011;20469;55.638;37.670;2022-10-15T02:42:20;4.70;;;2.58;;
34200;SDS011;20469;55.638;37.670;2022-10-15T02:44:49;4.72;;;2.60;;
34200;SDS011;20469;55.638;37.670;2022-10-15T02:47:16;5.18;;;2.63;;
34200;SDS011;20469;55.638;37.670;2022-10-15T02:49:44;5.70;;;2.72;;
34200;SDS011;20469;55.638;37.670;2022-10-15T02:52:12;5.65;;;2.85;;
34200;SDS011;20469;55.638;37.670;2022-10-15T02:54:40;4.40;;;3.08;;
34200;SDS011;20469;55.638;37.670;2022-10-15T02:57:07;5.97;;;3.17;;
34200;SDS011;20469;55.638;37.670;2022-10-15T02:59:35;8.25;;;2.67;;
34200;SDS011;20469;55.638;37.670;2022-10-15T03:02:03;4.47;;;2.75;;
34200;SDS011;20469;55.638;37.670;2022-10-15T03:04:31;4.70;;;2.90;;
34200;SDS011;20469;55.638;37.670;2022-10-15T03:06:59;5.60;;;2.67;;
34200;SDS011;20469;55.638;37.670;2022-10-15T03:09:26;6.70;;;3.10;;
34200;SDS011;20469;55.638;37.670;2022-10-15T03:11:54;6.97;;;3.17;;
34200;SDS011;20469;55.638;37.670;2022-10-15T03:14:21;7.20;;;3.20;;
34200;SDS011;20469;55.638;37.670;2022-10-15T03:16:49;4.78;;;2.83;;
34200;SDS011;20469;55.638;37.670;2022-10-15T03:19:17;4.70;;;2.92;;
34200;SDS011;20469;55.638;37.670;2022-10-15T03:21:45;6.38;;;3.10;;
34200;SDS011;20469;55.638;37.670;2022-10-15T03:24:13;7.00;;;3.88;;
34200;SDS011;20469;55.638;37.670;2022-10-15T03:26:41;8.70;;;3.28;;
34200;SDS011;20469;55.638;37.670;2022-10-15T03:29:09;4.38;;;3.00;;
34200;SDS011;20469;55.638;37.670;2022-10-15T03:31:36;5.05;;;3.10;;
34200;SDS011;20469;55.638;37.670;2022-10-15T03:34:04;8.23;;;3.70;;
34200;SDS011;20469;55.638;37.670;2022-10-15T03:36:32;5.82;;;3.35;;
34200;SDS011;20469;55.638;37.670;2022-10-15T03:38:59;6.43;;;3.45;;
34200;SDS011;20469;55.638;37.670;2022-10-15T03:41:27;6.07;;;3.13;;
34200;SDS011;20469;55.638;37.670;2022-10-15T03:43:59;8.82;;;3.35;;
34200;SDS011;20469;55.638;37.670;2022-10-15T03:46:28;9.57;;;3.72;;
34200;SDS011;20469;55.638;37.670;2022-10-15T03:48:56;5.78;;;3.13;;
34200;SDS011;20469;55.638;37.670;2022-10-15T03:51:24;7.47;;;4.25;;
34200;SDS011;20469;55.638;37.670;2022-10-15T03:53:54;5.57;;;3.20;;
34200;SDS011;20469;55.638;37.670;2022-10-15T03:56:22;6.70;;;3.58;;
34200;SDS011;20469;55.638;37.670;2022-10-15T03:58:50;7.70;;;3.63;;
34200;SDS011;20469;55.638;37.670;2022-10-15T04:01:19;6.07;;;3.22;;
34200;SDS011;20469;55.638;37.670;2022-10-15T04:03:50;6.50;;;3.33;;
34200;SDS011;20469;55.638;37.670;2022-10-15T04:06:18;6.35;;;3.10;;
34200;SDS011;20469;55.638;37.670;2022-10-15T04:08:46;15.13;;;5.05;;
34200;SDS011;20469;55.638;37.670;2022-10-15T04:11:14;13.70;;;4.50;;
34200;SDS011;20469;55.638;37.670;2022-10-15T04:13:42;11.23;;;4.53;;
34200;SDS011;20469;55.638;37.670;2022-10-15T04:16:10;8.77;;;3.42;;
34200;SDS011;20469;55.638;37.670;2022-10-15T04:18:37;9.85;;;4.45;;
34200;SDS011;20469;55.638;37.670;2022-10-15T04:21:05;8.07;;;3.95;;
34200;SDS011;20469;55.638;37.670;2022-10-15T04:23:32;8.98;;;4.30;;
34200;SDS011;20469;55.638;37.670;2022-10-15T04:26:00;7.43;;;3.58;;
34200;SDS011;20469;55.638;37.670;2022-10-15T04:28:28;7.43;;;3.25;;
34200;SDS011;20469;55.638;37.670;2022-10-15T04:30:59;4.32;;;3.10;;
34200;SDS011;20469;55.638;37.670;2022-10-15T04:33:27;7.78;;;3.72;;
34200;SDS011;20469;55.638;37.670;2022-10-15T04:35:57;9.27;;;3.42;;
34200;SDS011;20469;55.638;37.670;2022-10-15T04:38:27;8.40;;;3.63;;
34200;SDS011;20469;55.638;37.670;2022-10-15T04:40:57;6.38;;;2.65;;
34200;SDS011;20469;55.638;37.670;2022-10-15T04:43:27;9.07;;;3.88;;
34200;SDS011;20469;55.638;37.670;2022-10-15T04:45:56;6.00;;;3.53;;
34200;SDS011;20469;55.638;37.670;2022-10-15T04:48:27;5.93;;;3.38;;
34200;SDS011;20469;55.638;37.670;2022-10-15T04:50:58;6.35;;;3.45;;
34200;SDS011;20469;55.638;37.670;2022-10-15T04:53:44;7.85;;;3.65;;
34200;SDS011;20469;55.638;37.670;2022-10-15T04:56:13;6.82;;;3.92;;
34200;SDS011;20469;55.638;37.670;2022-10-15T04:58:44;7.97;;;3.78;;
34200;SDS011;20469;55.638;37.670;2022-10-15T05:01:13;10.68;;;3.50;;
34200;SDS011;20469;55.638;37.670;2022-10-15T05:03:42;6.65;;;3.90;;
34200;SDS011;20469;55.638;37.670;2022-10-15T05:06:12;5.97;;;3.17;;
34200;SDS011;20469;55.638;37.670;2022-10-15T05:08:42;10.00;;;3.47;;
34200;SDS011;20469;55.638;37.670;2022-10-15T05:11:11;8.93;;;3.45;;
34200;SDS011;20469;55.638;37.670;2022-10-15T05:13:41;6.32;;;3.45;;
34200;SDS011;20469;55.638;37.670;2022-10-15T05:16:10;6.40;;;3.25;;
34200;SDS011;20469;55.638;37.670;2022-10-15T05:18:40;6.97;;;3.47;;
34200;SDS011;20469;55.638;37.670;2022-10-15T05:21:09;6.70;;;3.45;;
34200;SDS011;20469;55.638;37.670;2022-10-15T05:23:37;6.32;;;3.15;;
34200;SDS011;20469;55.638;37.670;2022-10-15T05:26:06;6.78;;;3.38;;
34200;SDS011;20469;55.638;37.670;2022-10-15T05:28:36;9.30;;;4.57;;
34200;SDS011;20469;55.638;37.670;2022-10-15T05:31:05;8.32;;;3.38;;
34200;SDS011;20469;55.638;37.670;2022-10-15T05:33:40;6.78;;;3.28;;
34200;SDS011;20469;55.638;37.670;2022-10-15T05:36:12;11.32;;;3.60;;
34200;SDS011;20469;55.638;37.670;2022-10-15T05:38:43;6.38;;;3.60;;
34200;SDS011;20469;55.638;37.670;2022-10-15T05:41:12;7.32;;;4.05;;
34200;SDS011;20469;55.638;37.670;2022-10-15T05:43:40;9.70;;;3.55;;
34200;SDS011;20469;55.638;37.670;2022-10-15T05:46:08;8.57;;;3.38;;
34200;SDS011;20469;55.638;37.670;2022-10-15T05:48:35;8.30;;;3.65;;
34200;SDS011;20469;55.638;37.670;2022-10-15T05:51:05;8.38;;;3.50;;
34200;SDS011;20469;55.638;37.670;2022-10-15T05:53:37;9.35;;;3.63;;
34200;SDS011;20469;55.638;37.670;2022-10-15T05:56:06;8.63;;;3.70;;
34200;SDS011;20469;55.638;37.670;2022-10-15T05:58:34;7.90;;;3.75;;
34200;SDS011;20469;55.638;37.670;2022-10-15T06:01:04;7.82;;;3.47;;
34200;SDS011;20469;55.638;37.670;2022-10-15T06:03:33;7.82;;;3.85;;
34200;SDS011;20469;55.638;37.670;2022-10-15T06:06:01;9.90;;;3.50;;
34200;SDS011;20469;55.638;37.670;2022-10-15T06:08:29;12.73;;;3.90;;
34200;SDS011;20469;55.638;37.670;2022-10-15T06:11:02;9.25;;;3.92;;
34200;SDS011;20469;55.638;37.670;2022-10-15T06:13:36;7.55;;;3.63;;
34200;SDS011;20469;55.638;37.670;2022-10-15T06:16:05;7.18;;;2.72;;
34200;SDS011;20469;55.638;37.670;2022-10-15T06:18:34;4.63;;;2.88;;
34200;SDS011;20469;55.638;37.670;2022-10-15T06:21:02;10.85;;;3.75;;
34200;SDS011;20469;55.638;37.670;2022-10-15T06:23:30;5.88;;;2.40;;
34200;SDS011;20469;55.638;37.670;2022-10-15T06:26:01;4.78;;;2.95;;
34200;SDS011;20469;55.638;37.670;2022-10-15T06:28:33;6.43;;;2.95;;
34200;SDS011;20469;55.638;37.670;2022-10-15T06:31:05;4.75;;;3.10;;
34200;SDS011;20469;55.638;37.670;2022-10-15T06:33:33;8.60;;;3.15;;
34200;SDS011;20469;55.638;37.670;2022-10-15T06:36:03;6.45;;;2.90;;
34200;SDS011;20469;55.638;37.670;2022-10-15T06:38:34;5.22;;;2.90;;
34200;SDS011;20469;55.638;37.670;2022-10-15T06:41:03;10.70;;;3.67;;
34200;SDS011;20469;55.638;37.670;2022-10-15T06:43:31;6.40;;;3.10;;
34200;SDS011;20469;55.638;37.670;2022-10-15T06:46:01;6.47;;;2.92;;
34200;SDS011;20469;55.638;37.670;2022-10-15T06:48:29;9.75;;;3.47;;
34200;SDS011;20469;55.638;37.670;2022-10-15T06:50:58;7.95;;;3.22;;
34200;SDS011;20469;55.638;37.670;2022-10-15T06:53:28;11.35;;;4.03;;
34200;SDS011;20469;55.638;37.670;2022-10-15T06:55:58;12.27;;;4.40;;
34200;SDS011;20469;55.638;37.670;2022-10-15T06:58:26;9.63;;;3.72;;
34200;SDS011;20469;55.638;37.670;2022-10-15T07:01:02;8.07;;;3.25;;
34200;SDS011;20469;55.638;37.670;2022-10-15T07:03:31;6.82;;;3.90;;
34200;SDS011;20469;55.638;37.670;2022-10-15T07:06:00;13.20;;;4.00;;
34200;SDS011;20469;55.638;37.670;2022-10-15T07:08:29;5.90;;;3.20;;
34200;SDS011;20469;55.638;37.670;2022-10-15T07:10:57;6.75;;;3.45;;
34200;SDS011;20469;55.638;37.670;2022-10-15T07:13:25;10.23;;;3.92;;
34200;SDS011;20469;55.638;37.670;2022-10-15T07:15:53;7.10;;;3.60;;
34200;SDS011;20469;55.638;37.670;2022-10-15T07:18:24;6.25;;;2.53;;
34200;SDS011;20469;55.638;37.670;2022-10-15T07:20:52;4.30;;;2.40;;
34200;SDS011;20469;55.638;37.670;2022-10-15T07:23:20;6.18;;;2.67;;
34200;SDS011;20469;55.638;37.670;2022-10-15T07:25:55;6.82;;;2.63;;
34200;SDS011;20469;55.638;37.670;2022-10-15T07:28:23;4.20;;;2.60;;
34200;SDS011;20469;55.638;37.670;2022-10-15T07:30:53;9.23;;;2.75;;
34200;SDS011;20469;55.638;37.670;2022-10-15T07:33:21;7.80;;;2.83;;
34200;SDS011;20469;55.638;37.670;2022-10-15T07:35:48;7.55;;;3.00;;
34200;SDS011;20469;55.638;37.670;2022-10-15T07:38:15;8.73;;;3.20;;
34200;SDS011;20469;55.638;37.670;2022-10-15T07:40:43;6.60;;;2.80;;
34200;SDS011;20469;55.638;37.670;2022-10-15T07:43:11;6.00;;;3.00;;
34200;SDS011;20469;55.638;37.670;2022-10-15T07:45:39;5.07;;;2.75;;
34200;SDS011;20469;55.638;37.670;2022-10-15T07:48:07;10.73;;;2.72;;
34200;SDS011;20469;55.638;37.670;2022-10-15T07:50:35;6.68;;;3.13;;
34200;SDS011;20469;55.638;37.670;2022-10-15T07:53:07;11.82;;;3.05;;
34200;SDS011;20469;55.638;37.670;2022-10-15T07:55:35;7.03;;;2.95;;
34200;SDS011;20469;55.638;37.670;2022-10-15T07:58:03;9.50;;;2.97;;
34200;SDS011;20469;55.638;37.670;2022-10-15T08:00:33;6.75;;;3.05;;
34200;SDS011;20469;55.638;37.670;2022-10-15T08:03:01;12.13;;;3.28;;
34200;SDS011;20469;55.638;37.670;2022-10-15T08:05:30;8.25;;;2.63;;
34200;SDS011;20469;55.638;37.670;2022-10-15T08:07:58;7.80;;;2.70;;
34200;SDS011;20469;55.638;37.670;2022-10-15T08:10:26;7.18;;;2.90;;
34200;SDS011;20469;55.638;37.670;2022-10-15T08:12:54;5.90;;;2.60;;
34200;SDS011;20469;55.638;37.670;2022-10-15T08:15:22;6.57;;;2.97;;
34200;SDS011;20469;55.638;37.670;2022-10-15T08:17:50;6.50;;;2.88;;
34200;SDS011;20469;55.638;37.670;2022-10-15T08:20:20;6.10;;;2.75;;
34200;SDS011;20469;55.638;37.670;2022-10-15T08:25:20;6.43;;;2.83;;
34200;SDS011;20469;55.638;37.670;2022-10-15T08:27:51;4.97;;;3.15;;
34200;SDS011;20469;55.638;37.670;2022-10-15T08:30:20;8.45;;;2.65;;
34200;SDS011;20469;55.638;37.670;2022-10-15T08:32:48;6.60;;;3.20;;
34200;SDS011;20469;55.638;37.670;2022-10-15T08:35:19;8.63;;;2.65;;
34200;SDS011;20469;55.638;37.670;2022-10-15T08:37:47;6.50;;;3.10;;
34200;SDS011;20469;55.638;37.670;2022-10-15T08:40:15;8.20;;;3.40;;
34200;SDS011;20469;55.638;37.670;2022-10-15T08:42:44;6.43;;;3.10;;
34200;SDS011;20469;55.638;37.670;2022-10-15T08:45:13;6.13;;;3.00;;
34200;SDS011;20469;55.638;37.670;2022-10-15T08:47:46;15.15;;;3.45;;
34200;SDS011;20469;55.638;37.670;2022-10-15T08:50:25;8.43;;;3.33;;
34200;SDS011;20469;55.638;37.670;2022-10-15T08:52:54;9.52;;;3.30;;
34200;SDS011;20469;55.638;37.670;2022-10-15T08:55:26;8.73;;;2.95;;
34200;SDS011;20469;55.638;37.670;2022-10-15T08:58:03;7.35;;;3.10;;
34200;SDS011;20469;55.638;37.670;2022-10-15T09:00:51;3.25;;;2.65;;
34200;SDS011;20469;55.638;37.670;2022-10-15T09:03:27;6.78;;;3.65;;
34200;SDS011;20469;55.638;37.670;2022-10-15T09:06:05;6.82;;;2.88;;
34200;SDS011;20469;55.638;37.670;2022-10-15T09:11:56;9.13;;;3.40;;
34200;SDS011;20469;55.638;37.670;2022-10-15T09:14:41;10.77;;;3.05;;
34200;SDS011;20469;55.638;37.670;2022-10-15T09:17:14;7.63;;;3.03;;
34200;SDS011;20469;55.638;37.670;2022-10-15T09:19:48;8.80;;;2.88;;
34200;SDS011;20469;55.638;37.670;2022-10-15T09:22:23;12.57;;;2.80;;
34200;SDS011;20469;55.638;37.670;2022-10-15T09:24:53;6.22;;;3.90;;
34200;SDS011;20469;55.638;37.670;2022-10-15T09:27:26;10.20;;;4.30;;
34200;SDS011;20469;55.638;37.670;2022-10-15T09:35:50;9.25;;;4.13;;
34200;SDS011;20469;55.638;37.670;2022-10-15T09:38:24;10.95;;;4.10;;
34200;SDS011;20469;55.638;37.670;2022-10-15T09:41:19;9.93;;;4.15;;
34200;SDS011;20469;55.638;37.670;2022-10-15T09:43:58;12.65;;;4.00;;
34200;SDS011;20469;55.638;37.670;2022-10-15T09:46:31;7.90;;;4.20;;
34200;SDS011;20469;55.638;37.670;2022-10-15T09:49:02;11.38;;;4.75;;
34200;SDS011;20469;55.638;37.670;2022-10-15T09:51:39;10.98;;;4.95;;
34200;SDS011;20469;55.638;37.670;2022-10-15T09:54:18;10.00;;;4.50;;
34200;SDS011;20469;55.638;37.670;2022-10-15T09:56:53;12.18;;;4.32;;
34200;SDS011;20469;55.638;37.670;2022-10-15T09:59:23;13.93;;;4.35;;
34200;SDS011;20469;55.638;37.670;2022-10-15T10:01:55;13.38;;;5.05;;
34200;SDS011;20469;55.638;37.670;2022-10-15T10:04:29;11.77;;;4.53;;
34200;SDS011;20469;55.638;37.670;2022-10-15T10:06:59;10.45;;;4.32;;
34200;SDS011;20469;55.638;37.670;2022-10-15T10:09:32;8.15;;;4.05;;
34200;SDS011;20469;55.638;37.670;2022-10-15T10:12:04;10.30;;;4.60;;
34200;SDS011;20469;55.638;37.670;2022-10-15T10:14:36;12.35;;;4.43;;
34200;SDS011;20469;55.638;37.670;2022-10-15T10:17:13;11.15;;;4.65;;
34200;SDS011;20469;55.638;37.670;2022-10-15T10:19:45;7.25;;;4.60;;
34200;SDS011;20469;55.638;37.670;2022-10-15T10:22:28;11.48;;;4.45;;
34200;SDS011;20469;55.638;37.670;2022-10-15T10:24:58;9.52;;;4.40;;
34200;SDS011;20469;55.638;37.670;2022-10-15T10:27:27;9.93;;;4.35;;
34200;SDS011;20469;55.638;37.670;2022-10-15T10:29:59;11.02;;;4.65;;
34200;SDS011;20469;55.638;37.670;2022-10-15T10:32:35;11.55;;;4.40;;
34200;SDS011;20469;55.638;37.670;2022-10-15T10:35:05;10.65;;;4.60;;
34200;SDS011;20469;55.638;37.670;2022-10-15T10:37:47;11.85;;;4.72;;
34200;SDS011;20469;55.638;37.670;2022-10-15T10:40:22;9.02;;;5.35;;
34200;SDS011;20469;55.638;37.670;2022-10-15T10:45:55;10.98;;;4.60;;
34200;SDS011;20469;55.638;37.670;2022-10-15T10:48:32;8.93;;;4.63;;
34200;SDS011;20469;55.638;37.670;2022-10-15T10:51:11;10.10;;;4.30;;
34200;SDS011;20469;55.638;37.670;2022-10-15T10:56:40;11.70;;;5.00;;
34200;SDS011;20469;55.638;37.670;2022-10-15T10:59:18;9.93;;;4.22;;
34200;SDS011;20469;55.638;37.670;2022-10-15T11:01:55;13.90;;;5.22;;
34200;SDS011;20469;55.638;37.670;2022-10-15T11:04:24;11.95;;;4.75;;
34200;SDS011;20469;55.638;37.670;2022-10-15T11:06:57;10.82;;;4.95;;
34200;SDS011;20469;55.638;37.670;2022-10-15T11:12:43;11.18;;;4.80;;
34200;SDS011;20469;55.638;37.670;2022-10-15T11:15:32;7.90;;;4.10;;
34200;SDS011;20469;55.638;37.670;2022-10-15T11:18:20;11.45;;;4.97;;
34200;SDS011;20469;55.638;37.670;2022-10-15T11:21:09;15.18;;;5.35;;
34200;SDS011;20469;55.638;37.670;2022-10-15T11:24:03;11.02;;;5.10;;
34200;SDS011;20469;55.638;37.670;2022-10-15T11:26:49;8.20;;;4.22;;
34200;SDS011;20469;55.638;37.670;2022-10-15T11:29:41;10.15;;;3.90;;
34200;SDS011;20469;55.638;37.670;2022-10-15T11:35:37;9.10;;;4.20;;
34200;SDS011;20469;55.638;37.670;2022-10-15T11:44:19;9.18;;;4.10;;
34200;SDS011;20469;55.638;37.670;2022-10-15T11:47:09;9.77;;;4.70;;
34200;SDS011;20469;55.638;37.670;2022-10-15T11:50:02;14.95;;;4.65;;
34200;SDS011;20469;55.638;37.670;2022-10-15T11:52:53;10.95;;;4.75;;
34200;SDS011;20469;55.638;37.670;2022-10-15T11:55:43;10.40;;;4.57;;
34200;SDS011;20469;55.638;37.670;2022-10-15T11:58:22;10.07;;;4.57;;
34200;SDS011;20469;55.638;37.670;2022-10-15T12:01:02;10.40;;;4.70;;
34200;SDS011;20469;55.638;37.670;2022-10-15T12:03:38;16.02;;;4.88;;
34200;SDS011;20469;55.638;37.670;2022-10-15T12:06:18;9.50;;;4.43;;
34200;SDS011;20469;55.638;37.670;2022-10-15T12:08:51;8.23;;;4.55;;
34200;SDS011;20469;55.638;37.670;2022-10-15T12:11:31;8.30;;;4.35;;
34200;SDS011;20469;55.638;37.670;2022-10-15T12:14:17;11.50;;;5.40;;
34200;SDS011;20469;55.638;37.670;2022-10-15T12:17:14;8.85;;;4.45;;
34200;SDS011;20469;55.638;37.670;2022-10-15T12:19:53;11.65;;;4.47;;
34200;SDS011;20469;55.638;37.670;2022-10-15T12:22:33;7.95;;;4.70;;
34200;SDS011;20469;55.638;37.670;2022-10-15T12:25:09;10.90;;;5.20;;
34200;SDS011;20469;55.638;37.670;2022-10-15T12:28:19;10.85;;;4.68;;
34200;SDS011;20469;55.638;37.670;2022-10-15T12:31:00;8.90;;;4.10;;
34200;SDS011;20469;55.638;37.670;2022-10-15T12:33:44;11.18;;;4.50;;
34200;SDS011;20469;55.638;37.670;2022-10-15T12:36:22;18.73;;;9.07;;
34200;SDS011;20469;55.638;37.670;2022-10-15T12:38:57;20.65;;;7.35;;
34200;SDS011;20469;55.638;37.670;2022-10-15T12:41:52;11.35;;;4.68;;
34200;SDS011;20469;55.638;37.670;2022-10-15T12:44:22;8.80;;;4.57;;
34200;SDS011;20469;55.638;37.670;2022-10-15T12:46:53;9.70;;;4.38;;
34200;SDS011;20469;55.638;37.670;2022-10-15T12:49:44;10.15;;;4.00;;
34200;SDS011;20469;55.638;37.670;2022-10-15T12:55:19;7.57;;;3.97;;
34200;SDS011;20469;55.638;37.670;2022-10-15T12:57:51;9.10;;;3.95;;
34200;SDS011;20469;55.638;37.670;2022-10-15T13:00:26;9.73;;;4.30;;
34200;SDS011;20469;55.638;37.670;2022-10-15T13:03:07;5.82;;;3.55;;
34200;SDS011;20469;55.638;37.670;2022-10-15T13:05:39;7.68;;;3.90;;
34200;SDS011;20469;55.638;37.670;2022-10-15T13:08:12;6.72;;;4.00;;
34200;SDS011;20469;55.638;37.670;2022-10-15T13:10:46;7.07;;;3.63;;
34200;SDS011;20469;55.638;37.670;2022-10-15T13:13:23;13.02;;;3.97;;
34200;SDS011;20469;55.638;37.670;2022-10-15T13:15:57;9.63;;;4.32;;
34200;SDS011;20469;55.638;37.670;2022-10-15T13:18:27;8.13;;;3.83;;
34200;SDS011;20469;55.638;37.670;2022-10-15T13:20:57;7.70;;;4.00;;
34200;SDS011;20469;55.638;37.670;2022-10-15T13:23:26;12.98;;;4.72;;
34200;SDS011;20469;55.638;37.670;2022-10-15T13:28:46;9.52;;;4.65;;
34200;SDS011;20469;55.638;37.670;2022-10-15T13:31:24;8.77;;;4.50;;
34200;SDS011;20469;55.638;37.670;2022-10-15T13:34:07;7.32;;;4.25;;
34200;SDS011;20469;55.638;37.670;2022-10-15T13:36:56;8.85;;;4.50;;
34200;SDS011;20469;55.638;37.670;2022-10-15T13:39:31;6.13;;;4.05;;
34200;SDS011;20469;55.638;37.670;2022-10-15T13:42:21;8.98;;;4.22;;
34200;SDS011;20469;55.638;37.670;2022-10-15T13:44:55;11.23;;;5.95;;
34200;SDS011;20469;55.638;37.670;2022-10-15T13:47:29;9.52;;;5.07;;
34200;SDS011;20469;55.638;37.670;2022-10-15T13:52:49;13.02;;;5.30;;
34200;SDS011;20469;55.638;37.670;2022-10-15T13:55:23;9.98;;;4.68;;
34200;SDS011;20469;55.638;37.670;2022-10-15T13:58:00;8.93;;;4.40;;
34200;SDS011;20469;55.638;37.670;2022-10-15T14:00:32;14.95;;;5.00;;
34200;SDS011;20469;55.638;37.670;2022-10-15T14:03:06;11.13;;;4.70;;
34200;SDS011;20469;55.638;37.670;2022-10-15T14:05:35;9.77;;;4.57;;
34200;SDS011;20469;55.638;37.670;2022-10-15T14:08:03;10.23;;;5.10;;
34200;SDS011;20469;55.638;37.670;2022-10-15T14:10:31;10.48;;;4.97;;
34200;SDS011;20469;55.638;37.670;2022-10-15T14:12:58;9.90;;;4.90;;
34200;SDS011;20469;55.638;37.670;2022-10-15T14:18:12;10.80;;;4.57;;
34200;SDS011;20469;55.638;37.670;2022-10-15T14:20:44;8.73;;;4.60;;
34200;SDS011;20469;55.638;37.670;2022-10-15T14:23:14;12.90;;;5.20;;
34200;SDS011;20469;55.638;37.670;2022-10-15T14:25:50;12.15;;;5.38;;
34200;SDS011;20469;55.638;37.670;2022-10-15T14:28:20;12.45;;;4.88;;
34200;SDS011;20469;55.638;37.670;2022-10-15T14:30:49;9.98;;;5.00;;
34200;SDS011;20469;55.638;37.670;2022-10-15T14:36:12;10.98;;;5.00;;
34200;SDS011;20469;55.638;37.670;2022-10-15T14:38:53;9.63;;;4.35;;
34200;SDS011;20469;55.638;37.670;2022-10-15T14:41:30;14.75;;;6.00;;
34200;SDS011;20469;55.638;37.670;2022-10-15T14:46:45;11.45;;;5.60;;
34200;SDS011;20469;55.638;37.670;2022-10-15T14:49:21;10.02;;;5.35;;
34200;SDS011;20469;55.638;37.670;2022-10-15T14:51:56;11.38;;;6.13;;
34200;SDS011;20469;55.638;37.670;2022-10-15T14:54:36;12.90;;;5.53;;
34200;SDS011;20469;55.638;37.670;2022-10-15T14:59:52;12.50;;;5.93;;
34200;SDS011;20469;55.638;37.670;2022-10-15T15:02:23;15.57;;;6.53;;
34200;SDS011;20469;55.638;37.670;2022-10-15T15:07:45;11.20;;;5.97;;
34200;SDS011;20469;55.638;37.670;2022-10-15T15:10:14;12.68;;;5.97;;
34200;SDS011;20469;55.638;37.670;2022-10-15T15:12:44;12.85;;;6.32;;
34200;SDS011;20469;55.638;37.670;2022-10-15T15:15:19;19.40;;;6.75;;
34200;SDS011;20469;55.638;37.670;2022-10-15T15:17:47;15.40;;;6.43;;
34200;SDS011;20469;55.638;37.670;2022-10-15T15:20:16;15.68;;;7.35;;
34200;SDS011;20469;55.638;37.670;2022-10-15T15:22:47;14.60;;;6.72;;
34200;SDS011;20469;55.638;37.670;2022-10-15T15:25:18;13.82;;;6.38;;
34200;SDS011;20469;55.638;37.670;2022-10-15T15:27:47;16.38;;;7.72;;
34200;SDS011;20469;55.638;37.670;2022-10-15T15:30:16;17.38;;;7.55;;
34200;SDS011;20469;55.638;37.670;2022-10-15T15:32:46;13.98;;;7.07;;
34200;SDS011;20469;55.638;37.670;2022-10-15T15:35:17;14.82;;;7.95;;
34200;SDS011;20469;55.638;37.670;2022-10-15T15:37:50;13.25;;;7.13;;
34200;SDS011;20469;55.638;37.670;2022-10-15T15:40:18;20.50;;;8.13;;
34200;SDS011;20469;55.638;37.670;2022-10-15T15:42:46;17.20;;;7.57;;
34200;SDS011;20469;55.638;37.670;2022-10-15T15:45:24;18.55;;;7.45;;
34200;SDS011;20469;55.638;37.670;2022-10-15T15:47:53;14.30;;;7.40;;
34200;SDS011;20469;55.638;37.670;2022-10-15T15:50:24;16.45;;;7.03;;
34200;SDS011;20469;55.638;37.670;2022-10-15T15:52:52;14.75;;;7.43;;
34200;SDS011;20469;55.638;37.670;2022-10-15T15:55:20;11.98;;;6.88;;
34200;SDS011;20469;55.638;37.670;2022-10-15T15:57:48;16.70;;;7.13;;
34200;SDS011;20469;55.638;37.670;2022-10-15T16:00:17;12.90;;;6.43;;
34200;SDS011;20469;55.638;37.670;2022-10-15T16:02:45;16.45;;;6.75;;